createdAt,value
2019-04-10T00:01:30.030Z,40.40
2019-04-10T00:04:00.792Z,41.00
2019-04-10T00:06:30.716Z,33.85
2019-04-10T00:09:00.929Z,38.02
2019-04-10T00:11:32.628Z,37.85
2019-04-10T00:14:02.964Z,37.65
2019-04-10T00:16:33.122Z,42.88
2019-04-10T00:19:04.483Z,19.90
2019-04-10T00:21:35.482Z,44.77
2019-04-10T00:24:06.040Z,48.65
2019-04-10T00:29:05.765Z,41.70
2019-04-10T00:31:36.011Z,44.33
2019-04-10T00:34:05.823Z,51.00
2019-04-10T00:36:35.682Z,32.73
2019-04-10T00:39:07.233Z,35.25
2019-04-10T00:41:37.368Z,40.00
2019-04-10T00:44:07.802Z,38.15
2019-04-10T00:49:07.998Z,45.23
2019-04-10T00:51:38.033Z,53.25
2019-04-10T00:54:08.065Z,45.90
2019-04-10T00:56:38.932Z,34.53
2019-04-10T00:59:10.216Z,46.68
2019-04-10T01:01:41.350Z,30.50
2019-04-10T01:04:12.364Z,40.52
2019-04-10T01:06:42.452Z,35.25
2019-04-10T01:09:13.206Z,30.15
2019-04-10T01:11:43.430Z,31.75
2019-04-10T01:14:13.721Z,36.00
2019-04-10T01:16:44.013Z,36.90
2019-04-10T01:19:13.966Z,37.42
2019-04-10T01:21:44.289Z,40.10
2019-04-10T01:24:14.307Z,32.45
2019-04-10T01:26:45.442Z,31.27
2019-04-10T01:29:15.538Z,40.88
2019-04-10T01:31:45.683Z,36.98
2019-04-10T01:34:15.607Z,45.85
2019-04-10T01:36:46.014Z,33.28
2019-04-10T01:39:17.964Z,37.23
2019-04-10T01:41:48.065Z,35.35
2019-04-10T01:44:18.214Z,42.25
2019-04-10T01:46:48.659Z,34.83
2019-04-10T01:49:19.630Z,38.38
2019-04-10T01:51:49.752Z,40.05
2019-04-10T01:54:19.700Z,38.95
2019-04-10T01:56:50.148Z,36.70
2019-04-10T02:01:59.243Z,34.27
2019-04-10T02:04:29.256Z,40.80
2019-04-10T02:06:59.955Z,38.45
2019-04-10T02:11:59.775Z,40.37
2019-04-10T02:14:30.023Z,40.80
2019-04-10T02:17:00.185Z,41.15
2019-04-10T02:19:30.265Z,38.95
2019-04-10T02:22:00.343Z,53.60
2019-04-10T02:24:31.316Z,48.65
2019-04-10T02:27:02.312Z,51.68
2019-04-10T02:29:35.660Z,111.15
2019-04-10T02:32:05.788Z,171.68
2019-04-10T02:34:37.014Z,151.30
2019-04-10T02:37:08.577Z,105.35
2019-04-10T02:39:44.726Z,167.00
2019-04-10T02:42:10.854Z,146.25
2019-04-10T02:44:41.636Z,149.32
2019-04-10T02:47:12.931Z,115.45
2019-04-10T02:49:44.631Z,95.80
2019-04-10T02:52:14.919Z,90.90
2019-04-10T02:54:46.005Z,103.62
2019-04-10T02:57:17.400Z,71.25
2019-04-10T02:59:48.872Z,79.42
2019-04-10T03:02:20.249Z,79.27
2019-04-10T03:04:50.957Z,89.90
2019-04-10T03:07:21.993Z,80.00
2019-04-10T03:10:02.317Z,64.07
2019-04-10T03:12:23.982Z,60.03
2019-04-10T03:14:54.968Z,62.15
2019-04-10T03:17:26.023Z,54.90
2019-04-10T03:19:56.169Z,62.88
2019-04-10T03:22:26.572Z,82.42
2019-04-10T03:24:57.543Z,70.83
2019-04-10T03:27:28.092Z,66.00
2019-04-10T03:32:50.360Z,62.65
2019-04-10T03:35:20.728Z,63.73
2019-04-10T03:37:50.862Z,72.78
2019-04-10T03:40:21.666Z,60.48
2019-04-10T03:42:52.946Z,56.98
2019-04-10T03:45:24.116Z,63.83
2019-04-10T03:47:55.793Z,63.15
2019-04-10T03:52:55.954Z,57.70
2019-04-10T03:55:27.158Z,53.17
2019-04-10T03:57:57.171Z,66.37
2019-04-10T04:00:27.881Z,54.27
2019-04-10T04:02:58.226Z,50.75
2019-04-10T04:05:28.820Z,47.85
2019-04-10T04:10:29.091Z,56.23
2019-04-10T04:13:00.132Z,46.90
2019-04-10T04:15:30.407Z,46.10
2019-04-10T04:18:00.432Z,51.98
2019-04-10T04:20:30.701Z,58.40
2019-04-10T04:23:01.394Z,44.58
2019-04-10T04:28:00.792Z,40.85
2019-04-10T04:30:31.996Z,45.15
2019-04-10T04:33:02.523Z,48.90
2019-04-10T04:35:32.630Z,45.43
2019-04-10T04:38:02.631Z,46.40
2019-04-10T04:40:33.564Z,48.28
2019-04-10T04:43:03.776Z,52.43
2019-04-10T04:45:33.805Z,44.55
2019-04-10T04:48:03.743Z,43.75
2019-04-10T04:50:34.220Z,38.75
2019-04-10T04:53:04.568Z,34.08
2019-04-10T04:55:37.380Z,36.33
2019-04-10T04:58:07.479Z,40.98
2019-04-10T05:00:37.658Z,38.73
2019-04-10T05:03:07.831Z,36.08
2019-04-10T05:05:37.794Z,40.67
2019-04-10T05:08:08.455Z,31.80
2019-04-10T05:10:38.368Z,38.80
2019-04-10T05:13:08.417Z,36.93
2019-04-10T05:15:38.344Z,38.67
2019-04-10T05:18:08.275Z,35.63
2019-04-10T05:20:45.387Z,39.90
2019-04-10T05:23:10.287Z,36.73
2019-04-10T05:25:41.404Z,27.70
2019-04-10T05:28:11.606Z,36.90
2019-04-10T05:30:41.536Z,47.80
2019-04-10T05:33:12.017Z,58.95
2019-04-10T05:38:12.287Z,32.85
2019-04-10T05:40:42.306Z,41.42
2019-04-10T05:43:13.259Z,34.65
2019-04-10T05:45:43.492Z,36.05
2019-04-10T05:48:13.528Z,41.08
2019-04-10T05:50:53.072Z,40.70
2019-04-10T05:53:16.263Z,44.48
2019-04-10T05:55:47.281Z,34.58
2019-04-10T05:58:17.532Z,37.33
2019-04-10T06:00:47.611Z,29.35
2019-04-10T06:03:18.434Z,32.25
2019-04-10T06:05:48.709Z,51.08
2019-04-10T06:08:18.756Z,40.12
2019-04-10T06:10:49.790Z,34.48
2019-04-10T06:13:20.052Z,45.23
2019-04-10T06:15:50.908Z,58.92
2019-04-10T06:18:21.142Z,37.80
2019-04-10T06:20:50.984Z,33.35
2019-04-10T06:23:21.271Z,44.18
2019-04-10T06:25:51.341Z,39.80
2019-04-10T06:28:24.653Z,30.32
2019-04-10T06:30:54.529Z,33.88
2019-04-10T06:33:25.873Z,42.38
2019-04-10T06:35:57.416Z,28.40
2019-04-10T06:38:28.579Z,30.92
2019-04-10T06:40:59.720Z,36.80
2019-04-10T06:43:30.851Z,28.27
2019-04-10T06:46:01.025Z,34.70
2019-04-10T06:48:32.113Z,35.88
2019-04-10T06:51:02.207Z,36.38
2019-04-10T06:53:33.118Z,32.65
2019-04-10T06:56:04.887Z,33.67
2019-04-10T06:58:35.803Z,30.15
2019-04-10T07:01:06.355Z,39.50
2019-04-10T07:03:49.647Z,30.40
2019-04-10T07:06:15.608Z,33.35
2019-04-10T07:08:40.271Z,34.92
2019-04-10T07:11:12.907Z,34.75
2019-04-10T07:13:42.992Z,35.45
2019-04-10T07:16:12.965Z,31.12
2019-04-10T07:18:45.888Z,30.43
2019-04-10T07:21:14.690Z,33.73
2019-04-10T07:23:45.208Z,34.10
2019-04-10T07:26:21.768Z,28.52
2019-04-10T07:28:47.870Z,29.50
2019-04-10T07:31:20.029Z,26.95
2019-04-10T07:36:20.921Z,51.40
2019-04-10T07:38:53.878Z,60.28
2019-04-10T07:41:25.648Z,42.03
2019-04-10T07:43:56.771Z,42.15
2019-04-10T07:46:26.263Z,34.67
2019-04-10T07:48:56.541Z,37.08
2019-04-10T07:51:27.642Z,27.13
2019-04-10T07:53:57.819Z,31.82
2019-04-10T07:56:27.863Z,34.50
2019-04-10T07:58:57.794Z,30.08
2019-04-10T08:01:28.036Z,25.60
2019-04-10T08:03:58.279Z,27.45
2019-04-10T08:06:28.223Z,39.15
2019-04-10T08:08:59.091Z,25.27
2019-04-10T08:11:29.626Z,34.48
2019-04-10T08:14:01.152Z,25.27
2019-04-10T08:16:31.287Z,29.63
2019-04-10T08:19:01.919Z,24.80
2019-04-10T08:21:32.941Z,18.85
2019-04-10T08:24:02.974Z,17.80
2019-04-10T08:26:32.923Z,20.40
2019-04-10T08:29:03.358Z,27.00
2019-04-10T08:31:33.388Z,21.00
2019-04-10T08:34:03.430Z,19.95
2019-04-10T08:36:33.265Z,24.72
2019-04-10T08:39:04.714Z,15.43
2019-04-10T08:41:35.159Z,19.85
2019-04-10T08:44:06.410Z,29.20
2019-04-10T08:46:36.474Z,29.23
2019-04-10T08:49:06.419Z,26.65
2019-04-10T08:51:36.392Z,25.92
2019-04-10T08:54:06.382Z,30.82
2019-04-10T08:56:36.560Z,25.08
2019-04-10T08:59:07.581Z,31.77
2019-04-10T09:01:37.714Z,37.38
2019-04-10T09:04:07.869Z,19.55
2019-04-10T09:06:37.904Z,41.33
2019-04-10T09:09:08.218Z,28.77
2019-04-10T09:11:38.592Z,22.90
2019-04-10T09:14:08.727Z,27.90
2019-04-10T09:16:38.760Z,18.87
2019-04-10T09:19:09.682Z,16.35
2019-04-10T09:21:39.888Z,20.97
2019-04-10T09:24:10.235Z,16.87
2019-04-10T09:26:40.356Z,23.52
2019-04-10T09:29:10.166Z,28.40
2019-04-10T09:31:40.101Z,27.77
2019-04-10T09:34:10.100Z,40.30
2019-04-10T09:36:41.734Z,26.75
2019-04-10T09:39:11.664Z,16.82
2019-04-10T09:41:41.859Z,21.57
2019-04-10T09:44:12.320Z,21.85
2019-04-10T09:46:42.889Z,14.60
2019-04-10T09:49:12.917Z,15.18
2019-04-10T09:51:42.765Z,16.00
2019-04-10T09:54:13.369Z,12.85
2019-04-10T09:56:44.208Z,13.25
2019-04-10T09:59:14.151Z,11.48
2019-04-10T10:01:44.467Z,9.93
2019-04-10T10:04:15.366Z,19.75
2019-04-10T10:06:45.433Z,12.93
2019-04-10T10:09:15.376Z,8.85
2019-04-10T10:11:45.302Z,13.50
2019-04-10T10:16:44.388Z,17.05
2019-04-10T10:19:14.294Z,11.83
2019-04-10T10:21:44.906Z,9.40
2019-04-10T10:24:14.780Z,10.20
2019-04-10T10:29:15.522Z,9.85
2019-04-10T10:31:46.473Z,10.20
2019-04-10T10:34:18.428Z,7.92
2019-04-10T10:36:50.645Z,16.00
2019-04-10T10:39:21.329Z,12.25
2019-04-10T10:41:52.396Z,15.68
2019-04-10T10:44:22.431Z,14.98
2019-04-10T10:46:52.668Z,8.03
2019-04-10T10:49:22.728Z,8.95
2019-04-10T10:51:53.320Z,12.63
2019-04-10T10:54:23.399Z,17.85
2019-04-10T10:56:53.435Z,12.05
2019-04-10T10:59:23.372Z,10.53
2019-04-10T11:01:53.844Z,11.05
2019-04-10T11:04:24.170Z,11.03
2019-04-10T11:06:59.950Z,11.12
2019-04-10T11:09:26.259Z,9.28
2019-04-10T11:11:56.220Z,12.23
2019-04-10T11:14:27.703Z,19.25
2019-04-10T11:16:57.818Z,14.43
2019-04-10T11:19:29.073Z,15.50
2019-04-10T11:21:59.332Z,13.38
2019-04-10T11:24:29.427Z,15.00
2019-04-10T11:27:00.065Z,9.65
2019-04-10T11:29:32.539Z,10.20
2019-04-10T11:32:06.756Z,9.15
2019-04-10T11:34:38.221Z,8.98
2019-04-10T11:37:23.414Z,19.48
2019-04-10T11:39:43.529Z,11.88
2019-04-10T11:42:12.200Z,17.52
2019-04-10T11:44:45.342Z,12.95
2019-04-10T11:47:14.900Z,11.00
2019-04-10T11:49:47.167Z,9.65
2019-04-10T11:52:24.425Z,12.13
2019-04-10T11:54:49.247Z,15.80
2019-04-10T11:57:20.436Z,17.12
2019-04-10T11:59:50.954Z,18.32
2019-04-10T12:02:24.713Z,17.27
2019-04-10T12:04:56.051Z,15.53
2019-04-10T12:07:54.966Z,14.43
2019-04-10T12:12:28.025Z,10.32
2019-04-10T12:14:59.732Z,8.95
2019-04-10T12:17:29.849Z,12.73
2019-04-10T12:20:00.543Z,9.18
2019-04-10T12:22:31.642Z,16.02
2019-04-10T12:25:02.835Z,10.08
2019-04-10T12:27:33.518Z,9.73
2019-04-10T12:30:04.845Z,12.28
2019-04-10T12:32:35.033Z,11.78
2019-04-10T12:35:06.952Z,17.82
2019-04-10T12:37:37.174Z,29.75
2019-04-10T12:40:09.755Z,19.98
2019-04-10T12:42:40.666Z,19.67
2019-04-10T12:45:11.450Z,11.55
2019-04-10T12:47:41.962Z,14.03
2019-04-10T12:50:12.359Z,14.13
2019-04-10T12:52:42.884Z,12.93
2019-04-10T12:55:14.877Z,13.13
2019-04-10T12:57:45.424Z,17.10
2019-04-10T13:00:18.740Z,26.55
2019-04-10T13:02:48.781Z,22.25
2019-04-10T13:05:18.927Z,27.25
2019-04-10T13:10:18.336Z,16.23
2019-04-10T13:12:49.282Z,14.03
2019-04-10T13:15:19.361Z,12.10
2019-04-10T13:20:19.883Z,16.93
2019-04-10T13:22:50.685Z,14.47
2019-04-10T13:25:21.859Z,10.72
2019-04-10T13:27:53.043Z,9.40
2019-04-10T13:30:22.985Z,12.80
2019-04-10T13:32:53.027Z,8.63
2019-04-10T13:35:24.126Z,18.90
2019-04-10T13:37:54.840Z,11.48
2019-04-10T13:40:25.749Z,11.60
2019-04-10T13:42:55.818Z,12.58
2019-04-10T13:47:54.963Z,7.90
2019-04-10T13:52:55.063Z,13.50
2019-04-10T13:55:26.293Z,11.03
2019-04-10T13:57:57.118Z,15.20
2019-04-10T14:00:41.080Z,28.75
2019-04-10T14:03:12.234Z,45.40
2019-04-10T14:05:43.282Z,26.02
2019-04-10T14:08:14.598Z,12.98
2019-04-10T14:10:44.726Z,19.27
2019-04-10T14:13:15.712Z,23.62
2019-04-10T14:15:46.482Z,18.37
2019-04-10T14:18:18.535Z,16.30
2019-04-10T14:20:49.593Z,18.87
2019-04-10T14:23:22.208Z,16.12
2019-04-10T14:25:53.985Z,15.35
2019-04-10T14:28:27.096Z,17.48
2019-04-10T14:30:59.980Z,21.23
2019-04-10T14:33:30.395Z,16.07
2019-04-10T14:38:30.755Z,19.37
2019-04-10T14:41:01.167Z,16.35
2019-04-10T14:46:00.690Z,20.62
2019-04-10T14:48:30.731Z,14.93
2019-04-10T14:51:00.791Z,17.10
2019-04-10T14:53:31.145Z,13.28
2019-04-10T14:58:31.287Z,12.13
2019-04-10T15:01:02.803Z,29.48
2019-04-10T15:03:33.607Z,22.27
2019-04-10T15:06:04.992Z,21.95
2019-04-10T15:08:35.648Z,23.05
2019-04-10T15:13:36.141Z,19.75
2019-04-10T15:16:07.137Z,13.58
2019-04-10T15:18:37.291Z,14.55
2019-04-10T15:21:07.352Z,14.90
2019-04-10T15:23:37.285Z,17.90
2019-04-10T15:26:08.021Z,16.95
2019-04-10T15:28:39.384Z,17.82
2019-04-10T15:31:09.546Z,19.25
2019-04-10T15:33:39.589Z,14.10
2019-04-10T15:36:09.518Z,11.93
2019-04-10T15:38:40.180Z,14.70
2019-04-10T15:41:10.598Z,16.95
2019-04-10T15:43:41.315Z,19.12
2019-04-10T15:46:11.402Z,19.55
2019-04-10T15:48:41.887Z,21.25
2019-04-10T15:51:12.043Z,18.57
2019-04-10T15:53:42.926Z,25.15
2019-04-10T15:56:13.800Z,19.90
2019-04-10T15:58:43.870Z,21.30
2019-04-10T16:01:15.973Z,21.20
2019-04-10T16:03:47.824Z,17.85
2019-04-10T16:06:17.835Z,17.30
2019-04-10T16:08:48.286Z,19.02
2019-04-10T16:11:32.236Z,16.00
2019-04-10T16:14:16.666Z,18.40
2019-04-10T16:16:42.274Z,20.43
2019-04-10T16:19:20.465Z,15.38
2019-04-10T16:21:52.116Z,25.20
2019-04-10T16:24:22.908Z,18.70
2019-04-10T16:26:53.711Z,22.55
2019-04-10T16:29:25.216Z,27.27
2019-04-10T16:31:56.509Z,20.27
2019-04-10T16:34:26.923Z,33.33
2019-04-10T16:36:57.717Z,25.15
2019-04-10T16:39:27.930Z,25.45
2019-04-10T16:42:00.037Z,29.25
2019-04-10T16:44:30.129Z,23.47
2019-04-10T16:47:00.058Z,32.35
2019-04-10T16:49:30.895Z,21.57
2019-04-10T16:52:00.943Z,17.25
2019-04-10T16:54:31.344Z,26.75
2019-04-10T16:57:02.462Z,19.50
2019-04-10T16:59:32.597Z,18.10
2019-04-10T17:02:03.727Z,17.48
2019-04-10T17:04:34.203Z,21.50
2019-04-10T17:07:04.134Z,23.20
2019-04-10T17:09:34.502Z,23.18
2019-04-10T17:12:06.290Z,23.12
2019-04-10T17:14:37.743Z,31.10
2019-04-10T17:17:08.360Z,54.38
2019-04-10T17:19:48.853Z,35.33
2019-04-10T17:22:11.046Z,26.30
2019-04-10T17:24:41.829Z,25.57
2019-04-10T17:27:13.110Z,17.15
2019-04-10T17:29:43.271Z,19.55
2019-04-10T17:32:13.272Z,23.10
2019-04-10T17:34:43.217Z,22.62
2019-04-10T17:37:14.391Z,34.35
2019-04-10T17:39:44.535Z,46.00
2019-04-10T17:42:14.584Z,39.65
2019-04-10T17:44:45.641Z,23.95
2019-04-10T17:47:16.599Z,35.73
2019-04-10T17:49:47.675Z,23.40
2019-04-10T17:52:18.686Z,22.77
2019-04-10T17:54:49.771Z,19.57
2019-04-10T17:57:19.705Z,25.27
2019-04-10T17:59:50.979Z,24.02
2019-04-10T18:02:21.424Z,27.22
2019-04-10T18:04:51.329Z,28.92
2019-04-10T18:07:24.462Z,24.27
2019-04-10T18:09:54.511Z,23.05
2019-04-10T18:12:24.539Z,26.48
2019-04-10T18:14:55.567Z,25.25
2019-04-10T18:17:26.931Z,27.93
2019-04-10T18:19:58.729Z,24.85
2019-04-10T18:24:58.924Z,26.73
2019-04-10T18:27:30.032Z,27.48
2019-04-10T18:30:00.041Z,29.15
2019-04-10T18:32:30.047Z,30.55
2019-04-10T18:35:00.445Z,31.17
2019-04-10T18:37:31.027Z,26.27
2019-04-10T18:40:01.076Z,34.18
2019-04-10T18:42:32.915Z,32.25
2019-04-10T18:47:34.714Z,38.02
2019-04-10T18:50:04.426Z,43.70
2019-04-10T18:52:35.098Z,42.80
2019-04-10T18:55:06.081Z,51.20
2019-04-10T18:57:36.038Z,43.55
2019-04-10T19:00:24.293Z,55.12
2019-04-10T19:02:55.849Z,48.73
2019-04-10T19:05:27.849Z,47.30
2019-04-10T19:07:58.735Z,48.55
2019-04-10T19:10:30.601Z,46.80
2019-04-10T19:13:01.381Z,41.45
2019-04-10T19:15:31.580Z,46.90
2019-04-10T19:18:03.592Z,46.23
2019-04-10T19:20:33.894Z,54.38
2019-04-10T19:23:04.419Z,44.93
2019-04-10T19:25:34.733Z,39.33
2019-04-10T19:28:06.642Z,45.08
2019-04-10T19:30:39.367Z,49.20
2019-04-10T19:33:10.512Z,41.30
2019-04-10T19:35:41.397Z,36.93
2019-04-10T19:38:13.408Z,44.40
2019-04-10T19:40:43.848Z,39.95
2019-04-10T19:43:14.040Z,39.60
2019-04-10T19:45:44.012Z,35.00
2019-04-10T19:48:15.078Z,35.43
2019-04-10T19:50:45.644Z,34.38
2019-04-10T19:55:46.243Z,32.93
2019-04-10T19:58:16.304Z,33.95
2019-04-10T20:00:46.759Z,31.20
2019-04-10T20:03:17.922Z,31.80
2019-04-10T20:05:47.849Z,28.15
2019-04-10T20:08:17.931Z,34.88
2019-04-10T20:10:47.921Z,34.63
2019-04-10T20:13:18.708Z,30.52
2019-04-10T20:15:48.952Z,26.68
2019-04-10T20:18:19.148Z,25.70
2019-04-10T20:20:49.294Z,27.32
2019-04-10T20:23:19.543Z,27.15
2019-04-10T20:25:50.534Z,23.55
2019-04-10T20:28:20.661Z,26.33
2019-04-10T20:30:52.310Z,31.07
2019-04-10T20:33:22.909Z,24.52
2019-04-10T20:35:54.025Z,28.83
2019-04-10T20:38:25.248Z,30.25
2019-04-10T20:40:55.315Z,33.10
2019-04-10T20:43:28.112Z,35.23
2019-04-10T20:45:58.059Z,35.30
2019-04-10T20:48:28.683Z,31.62
2019-04-10T20:53:28.783Z,30.80
2019-04-10T20:55:59.955Z,31.95
2019-04-10T20:58:29.982Z,28.38
2019-04-10T21:00:59.957Z,37.35
2019-04-10T21:03:30.255Z,35.70
2019-04-10T21:06:00.505Z,29.52
2019-04-10T21:08:30.732Z,35.13
2019-04-10T21:11:00.773Z,49.23
2019-04-10T21:13:31.833Z,38.30
2019-04-10T21:16:02.971Z,41.92
2019-04-10T21:18:33.515Z,38.55
2019-04-10T21:21:03.804Z,37.03
2019-04-10T21:23:33.798Z,29.12
2019-04-10T21:26:03.963Z,29.77
2019-04-10T21:28:34.749Z,31.68
2019-04-10T21:31:22.861Z,29.45
2019-04-10T21:34:11.999Z,30.15
2019-04-10T21:36:43.450Z,34.63
2019-04-10T21:39:13.816Z,31.07
2019-04-10T21:41:44.598Z,27.62
2019-04-10T21:44:16.035Z,33.18
2019-04-10T21:46:46.693Z,39.92
2019-04-10T21:49:16.844Z,36.48
2019-04-10T21:51:46.777Z,41.40
2019-04-10T21:54:16.818Z,42.25
2019-04-10T21:56:46.853Z,37.80
2019-04-10T21:59:16.786Z,36.68
2019-04-10T22:01:47.236Z,35.95
2019-04-10T22:04:18.868Z,28.80
2019-04-10T22:06:51.539Z,30.70
2019-04-10T22:09:26.422Z,30.05
2019-04-10T22:11:58.450Z,33.53
2019-04-10T22:14:28.423Z,27.20
2019-04-10T22:16:58.709Z,40.35
2019-04-10T22:19:28.948Z,32.03
2019-04-10T22:21:58.921Z,34.08
2019-04-10T22:24:29.847Z,30.97
2019-04-10T22:27:01.099Z,28.83
2019-04-10T22:29:31.218Z,36.42
2019-04-10T22:32:02.029Z,41.42
2019-04-10T22:34:34.247Z,34.67
2019-04-10T22:37:06.261Z,35.73
2019-04-10T22:39:36.508Z,32.23
2019-04-10T22:42:07.565Z,28.55
2019-04-10T22:44:42.549Z,32.53
2019-04-10T22:47:09.278Z,32.03
2019-04-10T22:49:39.371Z,31.97
2019-04-10T22:52:09.363Z,29.80
2019-04-10T22:54:39.601Z,33.28
2019-04-10T22:57:10.488Z,29.82
2019-04-10T22:59:40.480Z,29.75
2019-04-10T23:02:12.063Z,28.57
2019-04-10T23:04:42.828Z,32.67
2019-04-10T23:09:42.070Z,30.08
2019-04-10T23:12:12.103Z,28.55
2019-04-10T23:14:42.787Z,27.05
2019-04-10T23:17:12.794Z,22.62
2019-04-10T23:19:42.826Z,25.95
2019-04-10T23:22:13.413Z,24.75
2019-04-10T23:24:43.498Z,29.98
2019-04-10T23:27:13.574Z,25.72
2019-04-10T23:29:44.340Z,26.35
2019-04-10T23:32:15.215Z,29.52
2019-04-10T23:34:45.306Z,28.02
2019-04-10T23:37:15.337Z,28.52
2019-04-10T23:39:46.145Z,27.93
2019-04-10T23:42:16.143Z,29.72
2019-04-10T23:44:46.063Z,27.98
2019-04-10T23:47:16.031Z,26.65
2019-04-10T23:49:46.036Z,29.77
2019-04-10T23:52:16.073Z,26.35
2019-04-10T23:54:46.104Z,26.77
2019-04-10T23:57:16.956Z,25.90
2019-04-10T23:59:47.014Z,25.68
